sensor_id;sensor_type;location;lat;lon;timestamp;temperature;humidity
22526;DHT22;11429;50.842;4.386;2023-05-07T00:00:03;17.20;99.90
22526;DHT22;11429;50.842;4.386;2023-05-07T00:02:29;17.10;99.90
22526;DHT22;11429;50.842;4.386;2023-05-07T00:04:54;17.00;99.90
22526;DHT22;11429;50.842;4.386;2023-05-07T00:07:20;17.00;99.90
22526;DHT22;11429;50.842;4.386;2023-05-07T00:09:46;17.10;99.90
22526;DHT22;11429;50.842;4.386;2023-05-07T00:12:12;17.10;99.90
22526;DHT22;11429;50.842;4.386;2023-05-07T00:14:37;17.10;99.90
22526;DHT22;11429;50.842;4.386;2023-05-07T00:17:03;17.00;99.90
22526;DHT22;11429;50.842;4.386;2023-05-07T00:19:29;17.10;99.90
22526;DHT22;11429;50.842;4.386;2023-05-07T00:21:54;17.20;99.90
22526;DHT22;11429;50.842;4.386;2023-05-07T00:24:21;17.10;99.90
22526;DHT22;11429;50.842;4.386;2023-05-07T00:26:47;17.10;99.90
22526;DHT22;11429;50.842;4.386;2023-05-07T00:29:12;17.00;99.90
22526;DHT22;11429;50.842;4.386;2023-05-07T00:31:38;16.80;99.90
22526;DHT22;11429;50.842;4.386;2023-05-07T00:34:04;16.80;99.90
22526;DHT22;11429;50.842;4.386;2023-05-07T00:36:29;16.80;99.90
22526;DHT22;11429;50.842;4.386;2023-05-07T00:38:58;16.70;99.90
22526;DHT22;11429;50.842;4.386;2023-05-07T00:41:24;16.70;99.90
22526;DHT22;11429;50.842;4.386;2023-05-07T00:43:50;16.70;99.90
22526;DHT22;11429;50.842;4.386;2023-05-07T00:46:17;16.60;99.90
22526;DHT22;11429;50.842;4.386;2023-05-07T00:48:45;16.80;99.90
22526;DHT22;11429;50.842;4.386;2023-05-07T00:51:11;17.00;99.90
22526;DHT22;11429;50.842;4.386;2023-05-07T00:53:37;16.90;99.90
22526;DHT22;11429;50.842;4.386;2023-05-07T00:56:03;17.00;99.90
22526;DHT22;11429;50.842;4.386;2023-05-07T00:58:29;17.00;99.90
22526;DHT22;11429;50.842;4.386;2023-05-07T01:00:55;16.90;99.90
22526;DHT22;11429;50.842;4.386;2023-05-07T01:03:21;17.00;99.90
22526;DHT22;11429;50.842;4.386;2023-05-07T01:05:48;17.00;99.90
22526;DHT22;11429;50.842;4.386;2023-05-07T01:08:14;17.00;99.90
22526;DHT22;11429;50.842;4.386;2023-05-07T01:10:41;16.90;99.90
22526;DHT22;11429;50.842;4.386;2023-05-07T01:13:09;17.00;99.90
22526;DHT22;11429;50.842;4.386;2023-05-07T01:15:36;17.10;99.90
22526;DHT22;11429;50.842;4.386;2023-05-07T01:18:02;17.10;99.90
22526;DHT22;11429;50.842;4.386;2023-05-07T01:20:28;17.00;99.90
22526;DHT22;11429;50.842;4.386;2023-05-07T01:22:54;17.00;99.90
22526;DHT22;11429;50.842;4.386;2023-05-07T01:25:20;16.80;99.90
22526;DHT22;11429;50.842;4.386;2023-05-07T01:27:46;16.60;99.90
22526;DHT22;11429;50.842;4.386;2023-05-07T01:30:12;16.60;99.90
22526;DHT22;11429;50.842;4.386;2023-05-07T01:35:13;16.70;99.90
22526;DHT22;11429;50.842;4.386;2023-05-07T01:37:39;16.80;99.90
22526;DHT22;11429;50.842;4.386;2023-05-07T01:40:06;16.90;99.90
22526;DHT22;11429;50.842;4.386;2023-05-07T01:42:33;16.80;99.90
22526;DHT22;11429;50.842;4.386;2023-05-07T01:44:58;16.70;99.90
22526;DHT22;11429;50.842;4.386;2023-05-07T01:47:25;16.70;99.90
22526;DHT22;11429;50.842;4.386;2023-05-07T01:49:51;16.80;99.90
22526;DHT22;11429;50.842;4.386;2023-05-07T01:52:17;16.70;99.90
22526;DHT22;11429;50.842;4.386;2023-05-07T01:54:43;16.60;99.90
22526;DHT22;11429;50.842;4.386;2023-05-07T01:57:08;16.60;99.90
22526;DHT22;11429;50.842;4.386;2023-05-07T01:59:34;16.50;99.90
22526;DHT22;11429;50.842;4.386;2023-05-07T02:02:00;16.60;99.90
22526;DHT22;11429;50.842;4.386;2023-05-07T02:04:26;16.90;99.90
22526;DHT22;11429;50.842;4.386;2023-05-07T02:06:51;16.90;99.90
22526;DHT22;11429;50.842;4.386;2023-05-07T02:09:18;17.00;99.90
22526;DHT22;11429;50.842;4.386;2023-05-07T02:11:44;16.90;99.90
22526;DHT22;11429;50.842;4.386;2023-05-07T02:14:10;16.80;99.90
22526;DHT22;11429;50.842;4.386;2023-05-07T02:16:35;16.60;99.90
22526;DHT22;11429;50.842;4.386;2023-05-07T02:19:01;16.60;99.90
22526;DHT22;11429;50.842;4.386;2023-05-07T02:21:27;16.80;99.90
22526;DHT22;11429;50.842;4.386;2023-05-07T02:23:53;16.90;99.90
22526;DHT22;11429;50.842;4.386;2023-05-07T02:26:19;17.10;99.90
22526;DHT22;11429;50.842;4.386;2023-05-07T02:28:45;17.00;99.90
22526;DHT22;11429;50.842;4.386;2023-05-07T02:31:10;16.80;99.90
22526;DHT22;11429;50.842;4.386;2023-05-07T02:33:36;16.70;99.90
22526;DHT22;11429;50.842;4.386;2023-05-07T02:36:06;16.60;99.90
22526;DHT22;11429;50.842;4.386;2023-05-07T02:38:33;16.60;99.90
22526;DHT22;11429;50.842;4.386;2023-05-07T02:40:58;16.60;99.90
22526;DHT22;11429;50.842;4.386;2023-05-07T02:43:24;16.60;99.90
22526;DHT22;11429;50.842;4.386;2023-05-07T02:46:03;16.70;99.90
22526;DHT22;11429;50.842;4.386;2023-05-07T02:48:29;16.90;99.90
22526;DHT22;11429;50.842;4.386;2023-05-07T02:50:55;16.70;99.90
22526;DHT22;11429;50.842;4.386;2023-05-07T02:53:21;16.50;99.90
22526;DHT22;11429;50.842;4.386;2023-05-07T02:55:47;16.40;99.90
22526;DHT22;11429;50.842;4.386;2023-05-07T02:58:12;16.50;99.90
22526;DHT22;11429;50.842;4.386;2023-05-07T03:00:38;16.60;99.90
22526;DHT22;11429;50.842;4.386;2023-05-07T03:03:04;16.70;99.90
22526;DHT22;11429;50.842;4.386;2023-05-07T03:05:29;16.90;99.90
22526;DHT22;11429;50.842;4.386;2023-05-07T03:07:55;17.00;99.90
22526;DHT22;11429;50.842;4.386;2023-05-07T03:10:21;16.90;99.90
22526;DHT22;11429;50.842;4.386;2023-05-07T03:12:46;16.80;99.90
22526;DHT22;11429;50.842;4.386;2023-05-07T03:15:12;16.40;99.90
22526;DHT22;11429;50.842;4.386;2023-05-07T03:17:38;16.40;99.90
22526;DHT22;11429;50.842;4.386;2023-05-07T03:20:04;16.30;99.90
22526;DHT22;11429;50.842;4.386;2023-05-07T03:22:30;16.40;99.90
22526;DHT22;11429;50.842;4.386;2023-05-07T03:24:56;16.40;99.90
22526;DHT22;11429;50.842;4.386;2023-05-07T03:27:22;16.50;99.90
22526;DHT22;11429;50.842;4.386;2023-05-07T03:29:48;16.50;99.90
22526;DHT22;11429;50.842;4.386;2023-05-07T03:32:13;16.30;99.90
22526;DHT22;11429;50.842;4.386;2023-05-07T03:34:40;16.30;99.90
22526;DHT22;11429;50.842;4.386;2023-05-07T03:37:05;16.00;99.90
22526;DHT22;11429;50.842;4.386;2023-05-07T03:39:31;15.90;99.90
22526;DHT22;11429;50.842;4.386;2023-05-07T03:41:58;15.90;99.90
22526;DHT22;11429;50.842;4.386;2023-05-07T03:44:23;15.80;99.90
22526;DHT22;11429;50.842;4.386;2023-05-07T03:46:49;15.90;99.90
22526;DHT22;11429;50.842;4.386;2023-05-07T03:49:15;15.90;99.90
22526;DHT22;11429;50.842;4.386;2023-05-07T03:51:40;15.90;99.90
22526;DHT22;11429;50.842;4.386;2023-05-07T03:54:06;15.90;99.90
22526;DHT22;11429;50.842;4.386;2023-05-07T03:56:32;15.80;99.90
22526;DHT22;11429;50.842;4.386;2023-05-07T03:58:59;15.70;99.90
22526;DHT22;11429;50.842;4.386;2023-05-07T04:01:25;15.70;99.90
22526;DHT22;11429;50.842;4.386;2023-05-07T04:03:51;15.70;99.90
22526;DHT22;11429;50.842;4.386;2023-05-07T04:06:17;15.70;99.90
22526;DHT22;11429;50.842;4.386;2023-05-07T04:08:43;15.80;99.90
22526;DHT22;11429;50.842;4.386;2023-05-07T04:11:09;15.90;99.90
22526;DHT22;11429;50.842;4.386;2023-05-07T04:13:34;16.10;99.90
22526;DHT22;11429;50.842;4.386;2023-05-07T04:16:02;16.00;99.90
22526;DHT22;11429;50.842;4.386;2023-05-07T04:18:28;16.00;99.90
22526;DHT22;11429;50.842;4.386;2023-05-07T04:20:54;16.30;99.90
22526;DHT22;11429;50.842;4.386;2023-05-07T04:23:20;16.30;99.90
22526;DHT22;11429;50.842;4.386;2023-05-07T04:25:45;16.50;99.90
22526;DHT22;11429;50.842;4.386;2023-05-07T04:28:12;16.50;99.90
22526;DHT22;11429;50.842;4.386;2023-05-07T04:30:38;16.40;99.90
22526;DHT22;11429;50.842;4.386;2023-05-07T04:33:04;16.30;99.90
22526;DHT22;11429;50.842;4.386;2023-05-07T04:35:29;16.30;99.90
22526;DHT22;11429;50.842;4.386;2023-05-07T04:37:55;16.20;99.90
22526;DHT22;11429;50.842;4.386;2023-05-07T04:40:21;16.20;99.90
22526;DHT22;11429;50.842;4.386;2023-05-07T04:42:46;16.40;99.90
22526;DHT22;11429;50.842;4.386;2023-05-07T04:45:12;16.60;99.90
22526;DHT22;11429;50.842;4.386;2023-05-07T04:47:38;16.80;99.90
22526;DHT22;11429;50.842;4.386;2023-05-07T04:50:05;17.10;99.90
22526;DHT22;11429;50.842;4.386;2023-05-07T04:52:31;17.10;99.90
22526;DHT22;11429;50.842;4.386;2023-05-07T04:54:59;17.10;99.90
22526;DHT22;11429;50.842;4.386;2023-05-07T04:57:25;17.10;99.90
22526;DHT22;11429;50.842;4.386;2023-05-07T04:59:51;17.30;99.90
22526;DHT22;11429;50.842;4.386;2023-05-07T05:02:17;17.20;99.90
22526;DHT22;11429;50.842;4.386;2023-05-07T05:04:43;17.20;99.90
22526;DHT22;11429;50.842;4.386;2023-05-07T05:07:08;17.30;99.90
22526;DHT22;11429;50.842;4.386;2023-05-07T05:09:34;17.20;99.90
22526;DHT22;11429;50.842;4.386;2023-05-07T05:12:00;17.20;99.90
22526;DHT22;11429;50.842;4.386;2023-05-07T05:14:25;17.30;99.90
22526;DHT22;11429;50.842;4.386;2023-05-07T05:16:51;17.50;99.90
22526;DHT22;11429;50.842;4.386;2023-05-07T05:19:17;17.70;99.90
22526;DHT22;11429;50.842;4.386;2023-05-07T05:21:42;17.80;99.90
22526;DHT22;11429;50.842;4.386;2023-05-07T05:24:08;17.80;99.90
22526;DHT22;11429;50.842;4.386;2023-05-07T05:26:34;17.70;99.90
22526;DHT22;11429;50.842;4.386;2023-05-07T05:29:00;17.90;99.90
22526;DHT22;11429;50.842;4.386;2023-05-07T05:31:25;17.90;99.90
22526;DHT22;11429;50.842;4.386;2023-05-07T05:33:51;17.90;99.90
22526;DHT22;11429;50.842;4.386;2023-05-07T05:36:17;17.90;99.90
22526;DHT22;11429;50.842;4.386;2023-05-07T05:38:42;18.00;99.90
22526;DHT22;11429;50.842;4.386;2023-05-07T05:41:09;18.00;99.90
22526;DHT22;11429;50.842;4.386;2023-05-07T05:43:35;17.90;99.90
22526;DHT22;11429;50.842;4.386;2023-05-07T05:46:00;17.50;99.90
22526;DHT22;11429;50.842;4.386;2023-05-07T05:48:26;17.30;99.90
22526;DHT22;11429;50.842;4.386;2023-05-07T05:50:52;17.50;99.90
22526;DHT22;11429;50.842;4.386;2023-05-07T05:53:17;17.60;99.90
22526;DHT22;11429;50.842;4.386;2023-05-07T05:55:43;17.70;99.90
22526;DHT22;11429;50.842;4.386;2023-05-07T05:58:09;17.50;99.90
22526;DHT22;11429;50.842;4.386;2023-05-07T06:00:35;17.10;99.90
22526;DHT22;11429;50.842;4.386;2023-05-07T06:03:01;17.20;99.90
22526;DHT22;11429;50.842;4.386;2023-05-07T06:05:26;17.30;99.90
22526;DHT22;11429;50.842;4.386;2023-05-07T06:07:52;17.60;99.90
22526;DHT22;11429;50.842;4.386;2023-05-07T06:10:18;17.60;99.90
22526;DHT22;11429;50.842;4.386;2023-05-07T06:12:43;17.60;99.90
22526;DHT22;11429;50.842;4.386;2023-05-07T06:15:10;17.60;99.90
22526;DHT22;11429;50.842;4.386;2023-05-07T06:17:35;17.80;99.90
22526;DHT22;11429;50.842;4.386;2023-05-07T06:20:01;17.90;99.90
22526;DHT22;11429;50.842;4.386;2023-05-07T06:22:27;17.70;99.90
22526;DHT22;11429;50.842;4.386;2023-05-07T06:24:52;17.60;99.90
22526;DHT22;11429;50.842;4.386;2023-05-07T06:27:18;17.50;99.90
22526;DHT22;11429;50.842;4.386;2023-05-07T06:29:44;17.40;99.90
22526;DHT22;11429;50.842;4.386;2023-05-07T06:32:11;17.40;99.90
22526;DHT22;11429;50.842;4.386;2023-05-07T06:34:37;17.50;99.90
22526;DHT22;11429;50.842;4.386;2023-05-07T06:37:03;17.50;99.90
22526;DHT22;11429;50.842;4.386;2023-05-07T06:39:29;17.40;99.90
22526;DHT22;11429;50.842;4.386;2023-05-07T06:41:54;17.50;99.90
22526;DHT22;11429;50.842;4.386;2023-05-07T06:44:20;17.70;99.90
22526;DHT22;11429;50.842;4.386;2023-05-07T06:46:46;17.70;99.90
22526;DHT22;11429;50.842;4.386;2023-05-07T06:49:15;17.90;99.90
22526;DHT22;11429;50.842;4.386;2023-05-07T06:51:41;17.80;99.90
22526;DHT22;11429;50.842;4.386;2023-05-07T06:54:07;17.60;99.90
22526;DHT22;11429;50.842;4.386;2023-05-07T06:56:33;17.40;99.90
22526;DHT22;11429;50.842;4.386;2023-05-07T06:59:00;17.20;99.90
22526;DHT22;11429;50.842;4.386;2023-05-07T07:01:26;17.10;99.90
22526;DHT22;11429;50.842;4.386;2023-05-07T07:03:52;17.20;99.90
22526;DHT22;11429;50.842;4.386;2023-05-07T07:06:18;17.10;99.90
22526;DHT22;11429;50.842;4.386;2023-05-07T07:08:43;17.20;99.90
22526;DHT22;11429;50.842;4.386;2023-05-07T07:11:10;17.40;99.90
22526;DHT22;11429;50.842;4.386;2023-05-07T07:13:35;17.10;99.90
22526;DHT22;11429;50.842;4.386;2023-05-07T07:16:01;17.20;99.90
22526;DHT22;11429;50.842;4.386;2023-05-07T07:18:28;17.20;99.90
22526;DHT22;11429;50.842;4.386;2023-05-07T07:20:54;17.10;99.90
22526;DHT22;11429;50.842;4.386;2023-05-07T07:23:19;17.10;99.90
22526;DHT22;11429;50.842;4.386;2023-05-07T07:25:45;17.00;99.90
22526;DHT22;11429;50.842;4.386;2023-05-07T07:28:11;16.90;99.90
22526;DHT22;11429;50.842;4.386;2023-05-07T07:30:37;17.00;99.90
22526;DHT22;11429;50.842;4.386;2023-05-07T07:33:03;17.10;99.90
22526;DHT22;11429;50.842;4.386;2023-05-07T07:35:29;17.00;99.90
22526;DHT22;11429;50.842;4.386;2023-05-07T07:37:55;16.90;99.90
22526;DHT22;11429;50.842;4.386;2023-05-07T07:40:21;17.00;99.90
22526;DHT22;11429;50.842;4.386;2023-05-07T07:42:47;16.80;99.90
22526;DHT22;11429;50.842;4.386;2023-05-07T07:45:13;16.90;99.90
22526;DHT22;11429;50.842;4.386;2023-05-07T07:47:41;16.80;99.90
22526;DHT22;11429;50.842;4.386;2023-05-07T07:50:07;16.70;99.90
22526;DHT22;11429;50.842;4.386;2023-05-07T07:52:34;16.50;99.90
22526;DHT22;11429;50.842;4.386;2023-05-07T07:54:59;16.60;99.90
22526;DHT22;11429;50.842;4.386;2023-05-07T07:57:25;16.60;99.90
22526;DHT22;11429;50.842;4.386;2023-05-07T07:59:51;16.70;99.90
22526;DHT22;11429;50.842;4.386;2023-05-07T08:02:17;16.60;99.90
22526;DHT22;11429;50.842;4.386;2023-05-07T08:04:43;16.60;99.90
22526;DHT22;11429;50.842;4.386;2023-05-07T08:07:12;16.60;99.90
22526;DHT22;11429;50.842;4.386;2023-05-07T08:09:39;16.50;99.90
22526;DHT22;11429;50.842;4.386;2023-05-07T08:12:08;16.40;99.90
22526;DHT22;11429;50.842;4.386;2023-05-07T08:14:34;16.60;99.90
22526;DHT22;11429;50.842;4.386;2023-05-07T08:17:01;16.60;99.90
22526;DHT22;11429;50.842;4.386;2023-05-07T08:19:27;16.90;99.90
22526;DHT22;11429;50.842;4.386;2023-05-07T08:21:53;17.00;99.90
22526;DHT22;11429;50.842;4.386;2023-05-07T08:24:18;16.90;99.90
22526;DHT22;11429;50.842;4.386;2023-05-07T08:26:44;16.80;99.90
22526;DHT22;11429;50.842;4.386;2023-05-07T08:29:10;16.90;99.90
22526;DHT22;11429;50.842;4.386;2023-05-07T08:31:36;16.80;99.90
22526;DHT22;11429;50.842;4.386;2023-05-07T08:34:02;17.00;99.90
22526;DHT22;11429;50.842;4.386;2023-05-07T08:36:28;17.30;99.90
22526;DHT22;11429;50.842;4.386;2023-05-07T08:38:54;17.20;99.90
22526;DHT22;11429;50.842;4.386;2023-05-07T08:41:20;17.20;99.90
22526;DHT22;11429;50.842;4.386;2023-05-07T08:43:50;17.00;99.90
22526;DHT22;11429;50.842;4.386;2023-05-07T08:46:20;17.00;99.90
22526;DHT22;11429;50.842;4.386;2023-05-07T08:48:50;16.80;99.90
22526;DHT22;11429;50.842;4.386;2023-05-07T08:51:18;16.90;99.90
22526;DHT22;11429;50.842;4.386;2023-05-07T08:53:44;17.30;99.90
22526;DHT22;11429;50.842;4.386;2023-05-07T08:56:11;17.30;99.90
22526;DHT22;11429;50.842;4.386;2023-05-07T08:58:37;17.40;99.90
22526;DHT22;11429;50.842;4.386;2023-05-07T09:01:08;17.50;99.90
22526;DHT22;11429;50.842;4.386;2023-05-07T09:03:34;17.70;99.90
22526;DHT22;11429;50.842;4.386;2023-05-07T09:06:00;17.90;99.90
22526;DHT22;11429;50.842;4.386;2023-05-07T09:08:29;18.10;99.90
22526;DHT22;11429;50.842;4.386;2023-05-07T09:10:54;18.00;99.90
22526;DHT22;11429;50.842;4.386;2023-05-07T09:13:21;17.50;99.90
22526;DHT22;11429;50.842;4.386;2023-05-07T09:15:46;17.00;99.90
22526;DHT22;11429;50.842;4.386;2023-05-07T09:18:12;17.10;99.90
22526;DHT22;11429;50.842;4.386;2023-05-07T09:20:38;17.20;99.90
22526;DHT22;11429;50.842;4.386;2023-05-07T09:23:06;17.10;99.90
22526;DHT22;11429;50.842;4.386;2023-05-07T09:25:33;16.90;99.90
22526;DHT22;11429;50.842;4.386;2023-05-07T09:28:03;16.80;99.90
22526;DHT22;11429;50.842;4.386;2023-05-07T09:30:31;16.70;99.90
22526;DHT22;11429;50.842;4.386;2023-05-07T09:32:59;16.70;99.90
22526;DHT22;11429;50.842;4.386;2023-05-07T09:35:26;16.60;99.90
22526;DHT22;11429;50.842;4.386;2023-05-07T09:37:59;16.70;99.90
22526;DHT22;11429;50.842;4.386;2023-05-07T09:40:26;17.00;99.90
22526;DHT22;11429;50.842;4.386;2023-05-07T09:42:53;17.30;99.90
22526;DHT22;11429;50.842;4.386;2023-05-07T09:45:28;17.20;99.90
22526;DHT22;11429;50.842;4.386;2023-05-07T09:47:56;17.50;99.90
22526;DHT22;11429;50.842;4.386;2023-05-07T09:50:27;17.60;99.90
22526;DHT22;11429;50.842;4.386;2023-05-07T09:52:54;17.60;99.90
22526;DHT22;11429;50.842;4.386;2023-05-07T09:55:21;17.70;99.90
22526;DHT22;11429;50.842;4.386;2023-05-07T09:57:52;17.90;99.90
22526;DHT22;11429;50.842;4.386;2023-05-07T10:00:20;18.00;99.90
22526;DHT22;11429;50.842;4.386;2023-05-07T10:02:49;18.00;99.90
22526;DHT22;11429;50.842;4.386;2023-05-07T10:05:16;18.10;99.90
22526;DHT22;11429;50.842;4.386;2023-05-07T10:07:43;17.90;99.90
22526;DHT22;11429;50.842;4.386;2023-05-07T10:10:10;17.90;99.90
22526;DHT22;11429;50.842;4.386;2023-05-07T10:12:36;17.60;99.90
22526;DHT22;11429;50.842;4.386;2023-05-07T10:15:09;17.60;99.90
22526;DHT22;11429;50.842;4.386;2023-05-07T10:17:37;17.50;99.90
22526;DHT22;11429;50.842;4.386;2023-05-07T10:20:04;17.40;99.90
22526;DHT22;11429;50.842;4.386;2023-05-07T10:22:38;17.40;99.90
22526;DHT22;11429;50.842;4.386;2023-05-07T10:25:23;17.30;99.90
22526;DHT22;11429;50.842;4.386;2023-05-07T10:27:52;17.40;99.90
22526;DHT22;11429;50.842;4.386;2023-05-07T10:33:05;17.70;99.90
22526;DHT22;11429;50.842;4.386;2023-05-07T10:35:43;17.90;99.90
22526;DHT22;11429;50.842;4.386;2023-05-07T10:38:09;17.90;99.90
22526;DHT22;11429;50.842;4.386;2023-05-07T10:40:35;17.60;99.90
22526;DHT22;11429;50.842;4.386;2023-05-07T10:43:03;17.50;99.90
22526;DHT22;11429;50.842;4.386;2023-05-07T10:45:30;17.20;99.90
22526;DHT22;11429;50.842;4.386;2023-05-07T10:48:06;17.20;99.90
22526;DHT22;11429;50.842;4.386;2023-05-07T10:50:32;17.20;99.90
22526;DHT22;11429;50.842;4.386;2023-05-07T10:55:42;17.60;99.90
22526;DHT22;11429;50.842;4.386;2023-05-07T10:58:24;17.80;99.90
22526;DHT22;11429;50.842;4.386;2023-05-07T11:00:59;17.50;99.90
22526;DHT22;11429;50.842;4.386;2023-05-07T11:03:26;17.80;99.90
22526;DHT22;11429;50.842;4.386;2023-05-07T11:06:12;18.00;99.90
22526;DHT22;11429;50.842;4.386;2023-05-07T11:08:54;18.10;99.90
22526;DHT22;11429;50.842;4.386;2023-05-07T11:11:27;17.90;99.90
22526;DHT22;11429;50.842;4.386;2023-05-07T11:14:05;18.40;99.90
22526;DHT22;11429;50.842;4.386;2023-05-07T11:16:32;18.70;99.90
22526;DHT22;11429;50.842;4.386;2023-05-07T11:18:59;19.10;99.90
22526;DHT22;11429;50.842;4.386;2023-05-07T11:21:41;19.00;99.90
22526;DHT22;11429;50.842;4.386;2023-05-07T11:24:10;19.00;99.90
22526;DHT22;11429;50.842;4.386;2023-05-07T11:26:46;19.50;99.90
22526;DHT22;11429;50.842;4.386;2023-05-07T11:29:17;19.70;99.90
22526;DHT22;11429;50.842;4.386;2023-05-07T11:31:43;19.10;99.90
22526;DHT22;11429;50.842;4.386;2023-05-07T11:34:09;19.20;99.90
22526;DHT22;11429;50.842;4.386;2023-05-07T11:36:42;18.90;99.90
22526;DHT22;11429;50.842;4.386;2023-05-07T11:39:28;18.40;99.90
22526;DHT22;11429;50.842;4.386;2023-05-07T11:41:55;18.20;99.90
22526;DHT22;11429;50.842;4.386;2023-05-07T11:44:20;18.70;99.90
22526;DHT22;11429;50.842;4.386;2023-05-07T11:46:46;18.70;99.90
22526;DHT22;11429;50.842;4.386;2023-05-07T11:49:12;19.10;99.90
22526;DHT22;11429;50.842;4.386;2023-05-07T11:51:38;19.00;99.90
22526;DHT22;11429;50.842;4.386;2023-05-07T11:54:05;19.20;99.90
22526;DHT22;11429;50.842;4.386;2023-05-07T11:56:34;19.30;99.90
22526;DHT22;11429;50.842;4.386;2023-05-07T11:59:04;18.80;99.90
22526;DHT22;11429;50.842;4.386;2023-05-07T12:01:30;18.50;99.90
22526;DHT22;11429;50.842;4.386;2023-05-07T12:03:56;18.70;99.90
22526;DHT22;11429;50.842;4.386;2023-05-07T12:06:22;18.60;99.90
22526;DHT22;11429;50.842;4.386;2023-05-07T12:08:47;18.70;99.90
22526;DHT22;11429;50.842;4.386;2023-05-07T12:11:22;18.90;99.90
22526;DHT22;11429;50.842;4.386;2023-05-07T12:13:48;18.90;99.90
22526;DHT22;11429;50.842;4.386;2023-05-07T12:16:14;19.00;99.90
22526;DHT22;11429;50.842;4.386;2023-05-07T12:18:40;19.40;99.90
22526;DHT22;11429;50.842;4.386;2023-05-07T12:21:06;19.20;99.90
22526;DHT22;11429;50.842;4.386;2023-05-07T12:23:34;19.10;99.90
22526;DHT22;11429;50.842;4.386;2023-05-07T12:26:00;19.20;99.90
22526;DHT22;11429;50.842;4.386;2023-05-07T12:28:25;19.10;99.90
22526;DHT22;11429;50.842;4.386;2023-05-07T12:30:51;19.60;99.90
22526;DHT22;11429;50.842;4.386;2023-05-07T12:33:19;19.60;99.90
22526;DHT22;11429;50.842;4.386;2023-05-07T12:35:48;19.80;99.90
22526;DHT22;11429;50.842;4.386;2023-05-07T12:38:15;20.10;99.90
22526;DHT22;11429;50.842;4.386;2023-05-07T12:41:04;20.00;99.90
22526;DHT22;11429;50.842;4.386;2023-05-07T12:43:30;20.10;99.90
22526;DHT22;11429;50.842;4.386;2023-05-07T12:45:57;20.10;99.90
22526;DHT22;11429;50.842;4.386;2023-05-07T12:48:24;19.90;99.90
22526;DHT22;11429;50.842;4.386;2023-05-07T12:50:53;20.10;99.90
22526;DHT22;11429;50.842;4.386;2023-05-07T12:53:24;19.80;99.90
22526;DHT22;11429;50.842;4.386;2023-05-07T12:55:53;19.40;99.90
22526;DHT22;11429;50.842;4.386;2023-05-07T13:00:53;19.20;99.90
22526;DHT22;11429;50.842;4.386;2023-05-07T13:05:50;19.40;99.90
22526;DHT22;11429;50.842;4.386;2023-05-07T13:08:30;19.70;99.90
22526;DHT22;11429;50.842;4.386;2023-05-07T13:10:57;19.50;99.90
22526;DHT22;11429;50.842;4.386;2023-05-07T13:13:23;19.20;99.90
22526;DHT22;11429;50.842;4.386;2023-05-07T13:15:49;19.40;99.90
22526;DHT22;11429;50.842;4.386;2023-05-07T13:18:15;19.60;99.90
22526;DHT22;11429;50.842;4.386;2023-05-07T13:20:40;19.60;99.90
22526;DHT22;11429;50.842;4.386;2023-05-07T13:23:06;19.50;99.90
22526;DHT22;11429;50.842;4.386;2023-05-07T13:25:32;19.20;99.90
22526;DHT22;11429;50.842;4.386;2023-05-07T13:27:57;19.20;99.90
22526;DHT22;11429;50.842;4.386;2023-05-07T13:30:23;19.30;99.90
22526;DHT22;11429;50.842;4.386;2023-05-07T13:32:49;19.10;99.90
22526;DHT22;11429;50.842;4.386;2023-05-07T13:35:16;19.10;99.90
22526;DHT22;11429;50.842;4.386;2023-05-07T13:37:42;19.00;99.90
22526;DHT22;11429;50.842;4.386;2023-05-07T13:40:08;19.40;99.90
22526;DHT22;11429;50.842;4.386;2023-05-07T13:42:34;19.30;99.90
22526;DHT22;11429;50.842;4.386;2023-05-07T13:44:59;19.50;99.90
22526;DHT22;11429;50.842;4.386;2023-05-07T13:47:26;19.90;99.90
22526;DHT22;11429;50.842;4.386;2023-05-07T13:49:51;20.00;99.90
22526;DHT22;11429;50.842;4.386;2023-05-07T13:52:18;20.00;99.90
22526;DHT22;11429;50.842;4.386;2023-05-07T13:54:45;19.70;99.90
22526;DHT22;11429;50.842;4.386;2023-05-07T13:57:11;19.80;99.90
22526;DHT22;11429;50.842;4.386;2023-05-07T13:59:36;19.80;99.90
22526;DHT22;11429;50.842;4.386;2023-05-07T14:02:02;19.70;99.90
22526;DHT22;11429;50.842;4.386;2023-05-07T14:04:28;19.90;99.90
22526;DHT22;11429;50.842;4.386;2023-05-07T14:06:53;19.80;99.90
22526;DHT22;11429;50.842;4.386;2023-05-07T14:09:19;19.80;99.90
22526;DHT22;11429;50.842;4.386;2023-05-07T14:11:45;19.50;99.90
22526;DHT22;11429;50.842;4.386;2023-05-07T14:14:13;19.80;99.90
22526;DHT22;11429;50.842;4.386;2023-05-07T14:16:38;19.60;99.90
22526;DHT22;11429;50.842;4.386;2023-05-07T14:19:04;19.80;99.90
22526;DHT22;11429;50.842;4.386;2023-05-07T14:21:30;19.50;99.90
22526;DHT22;11429;50.842;4.386;2023-05-07T14:23:56;19.50;99.90
22526;DHT22;11429;50.842;4.386;2023-05-07T14:26:22;19.70;99.90
22526;DHT22;11429;50.842;4.386;2023-05-07T14:28:48;19.90;99.90
22526;DHT22;11429;50.842;4.386;2023-05-07T14:31:14;19.90;99.90
22526;DHT22;11429;50.842;4.386;2023-05-07T14:33:40;19.60;99.90
22526;DHT22;11429;50.842;4.386;2023-05-07T14:36:06;19.60;99.90
22526;DHT22;11429;50.842;4.386;2023-05-07T14:38:32;19.50;99.90
22526;DHT22;11429;50.842;4.386;2023-05-07T14:40:58;19.50;99.90
22526;DHT22;11429;50.842;4.386;2023-05-07T14:43:24;19.60;99.90
22526;DHT22;11429;50.842;4.386;2023-05-07T14:45:50;19.80;99.90
22526;DHT22;11429;50.842;4.386;2023-05-07T14:48:15;19.40;99.90
22526;DHT22;11429;50.842;4.386;2023-05-07T14:50:42;19.20;99.90
22526;DHT22;11429;50.842;4.386;2023-05-07T14:53:07;19.40;99.90
22526;DHT22;11429;50.842;4.386;2023-05-07T14:55:34;19.70;99.90
22526;DHT22;11429;50.842;4.386;2023-05-07T14:58:00;19.80;99.90
22526;DHT22;11429;50.842;4.386;2023-05-07T15:00:26;20.00;99.90
22526;DHT22;11429;50.842;4.386;2023-05-07T15:02:51;19.50;99.90
22526;DHT22;11429;50.842;4.386;2023-05-07T15:05:17;19.10;99.90
22526;DHT22;11429;50.842;4.386;2023-05-07T15:07:44;19.00;99.90
22526;DHT22;11429;50.842;4.386;2023-05-07T15:10:10;18.90;99.90
22526;DHT22;11429;50.842;4.386;2023-05-07T15:12:36;18.90;99.90
22526;DHT22;11429;50.842;4.386;2023-05-07T15:15:02;18.80;99.90
22526;DHT22;11429;50.842;4.386;2023-05-07T15:17:28;18.80;99.90
22526;DHT22;11429;50.842;4.386;2023-05-07T15:19:53;18.90;99.90
22526;DHT22;11429;50.842;4.386;2023-05-07T15:22:19;18.80;99.90
22526;DHT22;11429;50.842;4.386;2023-05-07T15:24:46;18.70;99.90
22526;DHT22;11429;50.842;4.386;2023-05-07T15:27:12;18.90;99.90
22526;DHT22;11429;50.842;4.386;2023-05-07T15:29:38;19.00;99.90
22526;DHT22;11429;50.842;4.386;2023-05-07T15:32:03;19.00;99.90
22526;DHT22;11429;50.842;4.386;2023-05-07T15:34:30;18.70;99.90
22526;DHT22;11429;50.842;4.386;2023-05-07T15:36:56;18.70;99.90
22526;DHT22;11429;50.842;4.386;2023-05-07T15:39:24;18.60;99.90